»·PEaware :: BLADE16 KSPS-KSPS

BLADE16 :: KSPS-KSPS

FLIGHT INFORMATION

Flight Status: Arrived
Operator: Unknown
More flights by this operator :: More flights under this callsign
Pilot: 80 FTW ENJJPT (22981)
Aircraft: BEECH AIRCRAFT T-6A TEXAN
(TEX2)
More flights by this aircraft type
Origin: KSPS Sheppard AFB/Wichita Falls Mu
United States
Destination: KSPS Sheppard AFB/Wichita Falls Mu
United States
More flights between these airports :: More routes between these airports
Route: +S1L
File this flight plan on PilotEdge
Remarks: 3l
Altitude:
(Current/Filed)
140ft
Speed:
(Current/Filed)
0kts
Departed: 26-Jun-20 06:42 AM
Arrived: 26-Jun-20 07:36 AM
Distance/Time
Traveled:
1nm/0:54
Distance/Time
To Go:
Arrived

Flight Plot

Page will automatically refresh every two minutes.

Flight plan parsing failed; only flown route is shown


Map Options




Map Legend


Flown Route
Filed Route
Departure Airport
Arrival Airport
Navaid (VOR, NDB)
Fix

Horizontal Profiles

Position Reports

Time Latitude Longitude Heading Altitude Ground
Speed
26-Jun-20 06:30 33.999285 -98.502669 158 1023ft 0kts
26-Jun-20 06:31 33.999719 -98.502567 339 1023ft 12kts
26-Jun-20 06:32 34.002438 -98.502992 67 1023ft 14kts
26-Jun-20 06:33 34.005744 -98.502405 4 1023ft 18kts
26-Jun-20 06:34 34.009000 -98.499540 59 1023ft 13kts
26-Jun-20 06:35 34.010242 -98.495896 68 1023ft 15kts
26-Jun-20 06:36 34.010928 -98.494387 126 1023ft 0kts
26-Jun-20 06:37 34.010928 -98.494387 126 1023ft 0kts
26-Jun-20 06:38 34.010928 -98.494387 126 1023ft 0kts
26-Jun-20 06:39 34.010928 -98.494387 126 1023ft 0kts
26-Jun-20 06:40 34.010856 -98.493088 156 1023ft 0kts
26-Jun-20 06:41 33.978445 -98.473060 130 1503ft 213kts
26-Jun-20 06:42 33.962097 -98.420791 35 5434ft 179kts
26-Jun-20 06:43 34.008881 -98.442661 329 8852ft 195kts
26-Jun-20 06:44 34.057518 -98.478785 330 12250ft 208kts
26-Jun-20 06:45 34.108720 -98.523408 305 14195ft 247kts
26-Jun-20 06:46 34.149413 -98.596294 302 13926ft 256kts
26-Jun-20 06:47 34.188748 -98.667482 302 13992ft 252kts
26-Jun-20 06:48 34.217401 -98.746669 291 13984ft 254kts
26-Jun-20 06:49 34.244279 -98.826492 294 14011ft 254kts
26-Jun-20 06:50 34.283278 -98.899265 304 13951ft 254kts
26-Jun-20 06:51 34.325795 -98.969108 307 13906ft 255kts
26-Jun-20 06:52 34.359841 -99.041818 155 12396ft 261kts
26-Jun-20 06:53 34.365558 -99.072227 308 12067ft 200kts
26-Jun-20 06:54 34.399222 -99.082220 24 12033ft 155kts
26-Jun-20 06:55 34.409842 -99.111649 193 12232ft 153kts
26-Jun-20 06:56 34.380181 -99.083705 135 12149ft 163kts
26-Jun-20 06:57 34.344447 -99.041728 135 12849ft 158kts
26-Jun-20 06:58 34.350192 -99.031496 239 11340ft 143kts
26-Jun-20 06:59 34.340679 -99.005585 161 10418ft 116kts
26-Jun-20 07:00 34.311990 -98.997044 166 10069ft 136kts
26-Jun-20 07:01 34.335339 -99.011313 203 10665ft 166kts
26-Jun-20 07:02 34.362015 -99.027451 98 9967ft 203kts
26-Jun-20 07:03 34.305828 -99.015593 127 9662ft 210kts
26-Jun-20 07:04 34.321827 -99.026286 309 10749ft 164kts
26-Jun-20 07:05 34.361948 -99.030978 308 11823ft 223kts
26-Jun-20 07:06 34.390712 -99.095218 325 11980ft 217kts
26-Jun-20 07:07 34.379067 -99.094532 121 10537ft 239kts
26-Jun-20 07:08 34.343494 -99.023807 122 10339ft 228kts
26-Jun-20 07:09 34.341478 -98.946204 76 7920ft 228kts
26-Jun-20 07:10 34.355429 -98.865073 80 5067ft 228kts
26-Jun-20 07:11 34.373234 -98.811101 296 2317ft 242kts
26-Jun-20 07:12 34.400028 -98.873463 267 2119ft 189kts
26-Jun-20 07:13 34.400293 -98.935881 281 2025ft 183kts
26-Jun-20 07:14 34.409099 -98.983183 217 1725ft 162kts
26-Jun-20 07:15 34.371577 -98.989395 178 1540ft 121kts
26-Jun-20 07:16 34.337892 -98.985128 82 2025ft 149kts
26-Jun-20 07:17 34.369962 -98.984561 252 1784ft 129kts
26-Jun-20 07:18 34.338085 -98.996847 262 2429ft 158kts
26-Jun-20 07:19 34.370566 -98.993221 117 4267ft 144kts
26-Jun-20 07:20 34.362977 -98.975243 1 2682ft 128kts
26-Jun-20 07:21 34.347951 -98.989314 176 1336ft 141kts
26-Jun-20 07:22 34.333558 -98.948206 82 3932ft 193kts
26-Jun-20 07:23 34.341505 -98.873117 85 5497ft 258kts
26-Jun-20 07:24 34.342043 -98.786581 96 5325ft 242kts
26-Jun-20 07:25 34.328780 -98.704963 105 4267ft 234kts
26-Jun-20 07:26 34.313741 -98.630377 101 4045ft 216kts
26-Jun-20 07:27 34.298395 -98.557461 104 3991ft 221kts
26-Jun-20 07:28 34.263170 -98.505774 175 3982ft 219kts
26-Jun-20 07:29 34.201708 -98.505695 180 2403ft 214kts
26-Jun-20 07:30 34.145464 -98.514268 190 1537ft 179kts
26-Jun-20 07:31 34.100393 -98.529698 202 1619ft 156kts
26-Jun-20 07:32 34.061805 -98.517290 157 1567ft 118kts
26-Jun-20 07:33 34.031011 -98.502846 156 1437ft 114kts
26-Jun-20 07:34 34.003093 -98.489440 158 1023ft 68kts
26-Jun-20 07:35 33.995935 -98.486248 210 1023ft 6kts
26-Jun-20 07:36 33.992705 -98.487348 181 1023ft 17kts
26-Jun-20 07:37 33.988685 -98.489105 247 1023ft 24kts
26-Jun-20 07:38 33.987486 -98.495550 339 1023ft 19kts
26-Jun-20 07:39 33.994477 -98.498935 333 1023ft 29kts
26-Jun-20 07:40 33.996791 -98.502230 157 1023ft 0kts

Navigation Log

Ident Type
Flight plan parsing failed, navigation log unavailable